KCFV/CFV METAR and TAF weather

Enter ICAO airport designator
Station Type Date Time Source
KCFV METAR 2019/08/19 11:52 UTC NOAA

KCFV 191152Z AUTO 15005KT 10SM FEW075 23/22 A2995 RMK AO2 SLP136 70007 T02330217 10256 20233 53013


Station Type Date Time Source
KCFV Decoded METAR 2019/08/19 11:52 UTC NOAA

Station name not available
Aug 19, 2019 - 07:52 AM EDT / 2019.08.19 1152 UTC
Wind: from the SSE (150 degrees) at 6 MPH (5 KT):0
Visibility: 10 mile(s):0
Sky conditions: mostly clear
Temperature: 73.9 F (23.3 C)
Dew Point: 71.1 F (21.7 C)
Relative Humidity: 90%
Pressure (altimeter): 29.95 in. Hg (1014 hPa)
Pressure tendency: 0.04 inches (1.3 hPa) higher than three hours ago
ob: KCFV 191152Z AUTO 15005KT 10SM FEW075 23/22 A2995 RMK AO2 SLP136 70007 T02330217 10256 20233 53013
cycle: 12

Station Type Date Time Source
KCFV TAF UTC NOAA

Error!

Example: see airport list